Time;durP1;ratioP1;P1;durP2;ratioP2;P2;SDS_P1;SDS_P2;PMS_P1;PMS_P2;Temp;Humidity;BMP_temperature;BMP_pressure;BME280_temperature;BME280_humidity;BME280_pressure;Samples;Min_cycle;Max_cycle;Signal;HPM_P1;HPM_P2
2023/07/21 08:49:18;;;;;;;17.35;13.10;;;;;;;18.04;99.07;100913.84;5069477;28;20375;-65
2023/07/21 08:51:43;;;;;;;18.23;14.07;;;;;;;18.06;93.22;100916.31;5069289;28;20036;-65
2023/07/21 08:54:09;;;;;;;14.32;12.68;;;;;;;18.13;94.54;100914.13;5069713;28;20464;-66
2023/07/21 08:56:35;;;;;;;13.85;12.38;;;;;;;18.23;97.95;100914.09;5069685;28;20024;-66
2023/07/21 08:59:00;;;;;;;18.83;11.73;;;;;;;18.28;89.62;100917.94;5068200;28;20025;-66
2023/07/21 09:01:26;;;;;;;10.50;9.40;;;;;;;18.18;77.48;100921.53;5067446;28;20440;-65
2023/07/21 09:03:51;;;;;;;14.77;9.48;;;;;;;18.17;80.01;100920.69;5068224;28;20123;-66
2023/07/21 09:06:16;;;;;;;9.60;8.60;;;;;;;18.24;82.28;100915.75;5068521;28;20028;-66
2023/07/21 09:08:46;;;;;;;12.00;10.45;;;;;;;18.22;82.28;100917.94;5069446;28;20017;-65
2023/07/21 09:11:11;;;;;;;13.13;10.35;;;;;;;18.24;84.76;100923.97;5078787;28;20110;-65
2023/07/21 09:13:37;;;;;;;12.43;10.48;;;;;;;18.34;85.21;100919.56;5076431;28;20448;-66
2023/07/21 09:16:05;;;;;;;11.80;10.60;;;;;;;18.35;78.15;100924.78;5068182;28;20513;-66
2023/07/21 09:18:41;;;;;;;13.60;11.10;;;;;;;18.36;81.40;100918.22;5069393;28;20021;-65
2023/07/21 09:21:07;;;;;;;15.75;12.68;;;;;;;18.36;78.90;100903.69;5069451;28;20078;-65
2023/07/21 09:23:33;;;;;;;14.40;12.48;;;;;;;18.51;82.13;100914.63;5068024;28;20025;-65
2023/07/21 09:26:00;;;;;;;15.75;14.20;;;;;;;18.47;77.99;100908.06;5069051;28;20472;-65
2023/07/21 09:28:40;;;;;;;17.42;15.13;;;;;;;18.57;81.77;100904.50;5069238;28;20036;-66
2023/07/21 09:31:06;;;;;;;17.58;15.90;;;;;;;18.74;80.45;100901.41;5069192;28;20422;-65
2023/07/21 09:33:37;;;;;;;18.10;16.20;;;;;;;18.94;78.74;100901.38;5067824;28;20016;-65
2023/07/21 09:36:07;;;;;;;17.27;15.48;;;;;;;19.04;75.70;100903.25;5068193;28;20041;-66
2023/07/21 09:38:34;;;;;;;17.65;13.88;;;;;;;19.08;70.29;100901.59;5066793;28;20032;-66
2023/07/21 09:41:11;;;;;;;17.42;14.38;;;;;;;19.18;70.40;100895.25;5048569;28;20025;-65
2023/07/21 09:43:37;;;;;;;16.42;13.32;;;;;;;19.28;69.38;100889.72;5048808;28;20025;-66
2023/07/21 09:46:05;;;;;;;16.08;14.35;;;;;;;19.24;67.52;100888.63;5048023;28;20021;-66
2023/07/21 09:48:31;;;;;;;16.02;14.32;;;;;;;19.17;64.72;100888.09;5047077;28;20102;-66
2023/07/21 09:51:03;;;;;;;16.30;13.43;;;;;;;19.16;66.19;100885.66;5048341;28;20025;-64
2023/07/21 09:53:38;;;;;;;;;;;;;;;19.28;70.71;100888.91;5048926;28;20033;-66
2023/07/21 09:56:05;;;;;;;13.95;12.15;;;;;;;19.33;64.54;100885.31;5048416;28;20438;-66
2023/07/21 09:58:33;;;;;;;14.50;12.88;;;;;;;19.55;66.10;100885.72;5047199;28;20472;-66
2023/07/21 10:01:04;;;;;;;13.60;11.68;;;;;;;19.73;64.82;100877.88;5032130;28;20469;-66
2023/07/21 10:03:31;;;;;;;14.73;13.07;;;;;;;19.69;64.91;100872.16;5033727;28;20018;-67
2023/07/21 10:05:59;;;;;;;13.52;12.15;;;;;;;19.56;64.53;100884.59;5034718;28;20415;-67
2023/07/21 10:08:31;;;;;;;14.45;11.15;;;;;;;19.45;64.78;100894.81;5034924;28;20064;-67
2023/07/21 10:10:57;;;;;;;14.88;12.43;;;;;;;19.33;64.50;100890.78;5034414;28;20400;-67
2023/07/21 10:13:27;;;;;;;13.98;12.02;;;;;;;19.25;65.92;100895.75;5034599;28;20091;-67
2023/07/21 10:15:58;;;;;;;13.07;11.77;;;;;;;19.15;67.08;100897.75;5034449;28;20025;-67
2023/07/21 10:18:24;;;;;;;15.02;12.45;;;;;;;19.03;74.31;100901.63;5034783;28;20021;-72
2023/07/21 10:20:53;;;;;;;14.38;12.85;;;;;;;18.95;93.50;100900.28;5034828;28;20033;-66
2023/07/21 10:23:38;;;;;;;17.60;14.75;;;;;;;18.85;100.00;100896.72;5034678;28;20037;-66
2023/07/21 10:26:08;;;;;;;17.83;15.27;;;;;;;18.53;100.00;100901.47;5033703;28;20110;-67
2023/07/21 10:28:38;;;;;;;21.80;17.30;;;;;;;18.31;100.00;100893.53;5034496;28;20508;-67
2023/07/21 10:31:25;;;;;;;20.40;16.25;;;;;;;18.21;100.00;100904.53;5034352;28;20032;-67
2023/07/21 10:34:23;;;;;;;20.02;17.10;;;;;;;18.20;100.00;100916.56;5034132;28;20029;-67
2023/07/21 10:36:51;;;;;;;20.80;17.42;;;;;;;17.98;100.00;100914.09;5017762;28;20539;-67
2023/07/21 10:39:23;;;;;;;27.35;19.30;;;;;;;17.89;100.00;100909.19;5034205;28;20048;-66
2023/07/21 10:41:49;;;;;;;;;;;;;;;18.03;100.00;100925.06;5034390;28;20071;-68
2023/07/21 10:44:15;;;;;;;23.45;19.20;;;;;;;17.27;100.00;100915.56;5034012;28;19908;-69
2023/07/21 10:46:46;;;;;;;24.35;20.75;;;;;;;17.07;100.00;100919.06;5034240;28;20018;-69
2023/07/21 10:49:13;;;;;;;17.10;15.30;;;;;;;16.91;100.00;100918.16;5032642;28;20049;-68
2023/07/21 10:51:39;;;;;;;20.85;18.65;;;;;;;16.82;100.00;100917.84;5034179;28;20033;-68
2023/07/21 10:54:05;;;;;;;22.15;19.95;;;;;;;16.87;100.00;100915.16;5033847;28;20527;-68
2023/07/21 10:56:51;;;;;;;22.33;20.00;;;;;;;16.91;100.00;100929.09;5034111;28;20040;-68
2023/07/21 10:59:18;;;;;;;23.38;20.88;;;;;;;16.87;100.00;100930.72;5032802;28;20049;-68
2023/07/21 11:01:49;;;;;;;22.15;19.73;;;;;;;16.78;100.00;100939.38;5031514;28;20022;-68
2023/07/21 11:04:16;;;;;;;16.15;14.35;;;;;;;16.65;100.00;100929.75;5034152;28;20025;-68
2023/07/21 11:06:43;;;;;;;13.48;11.20;;;;;;;16.45;100.00;100933.16;5033093;28;20025;-68
2023/07/21 11:09:11;;;;;;;12.93;10.68;;;;;;;16.28;100.00;100932.50;5034190;28;20086;-67
2023/07/21 11:11:44;;;;;;;9.50;8.27;;;;;;;16.17;100.00;100949.88;5033280;28;20022;-67
2023/07/21 11:14:15;;;;;;;9.23;7.50;;;;;;;16.01;100.00;100947.00;5034106;28;20527;-68
2023/07/21 11:16:48;;;;;;;9.52;8.45;;;;;;;15.91;100.00;100952.38;5034098;28;20021;-70
2023/07/21 11:19:15;;;;;;;8.82;7.95;;;;;;;15.88;100.00;100959.19;5034024;28;20041;-69
2023/07/21 11:21:41;;;;;;;11.43;8.50;;;;;;;15.84;100.00;100951.78;5033706;28;20029;-68
2023/07/21 11:24:08;;;;;;;9.13;8.35;;;;;;;15.82;100.00;100960.22;5034030;28;20037;-72
2023/07/21 11:26:35;;;;;;;9.60;8.70;;;;;;;15.83;100.00;100958.31;5034001;28;20026;-68
2023/07/21 11:29:04;;;;;;;9.25;8.25;;;;;;;15.83;100.00;100959.13;5033199;28;20441;-68
2023/07/21 11:31:32;;;;;;;11.48;8.38;;;;;;;15.95;100.00;100953.50;5033852;28;20025;-70
2023/07/21 11:33:58;;;;;;;9.13;7.75;;;;;;;16.03;100.00;100944.84;5031794;28;20029;-67
2023/07/21 11:36:24;;;;;;;8.73;7.80;;;;;;;16.20;100.00;100949.34;5033367;28;20090;-67
2023/07/21 11:39:19;;;;;;;8.07;7.25;;;;;;;16.37;100.00;100950.03;5033133;28;20419;-67
2023/07/21 11:41:53;;;;;;;8.65;6.90;;;;;;;16.61;100.00;100944.22;5032423;28;20070;-67
2023/07/21 11:44:29;;;;;;;6.95;5.47;;;;;;;16.54;100.00;100949.06;5033575;28;20025;-68
2023/07/21 11:46:58;;;;;;;7.25;6.32;;;;;;;16.67;100.00;100945.88;5033065;28;20021;-68
2023/07/21 11:49:28;;;;;;;7.00;5.85;;;;;;;16.98;100.00;100938.72;5032525;28;20342;-68
2023/07/21 11:51:54;;;;;;;6.22;5.45;;;;;;;17.20;100.00;100939.63;5033288;28;20457;-68
2023/07/21 11:54:22;;;;;;;5.20;4.72;;;;;;;17.24;100.00;100938.00;5033410;28;20025;-68
2023/07/21 11:56:48;;;;;;;6.65;4.47;;;;;;;17.29;100.00;100933.38;5033061;28;20160;-68
2023/07/21 11:59:13;;;;;;;5.93;5.32;;;;;;;17.36;100.00;100922.16;5033286;28;20075;-68
2023/07/21 12:01:39;;;;;;;5.68;4.82;;;;;;;17.47;100.00;100923.03;5031053;28;20029;-68
2023/07/21 12:04:05;;;;;;;5.97;5.45;;;;;;;17.45;100.00;100922.47;5031712;28;20112;-69
2023/07/21 12:06:30;;;;;;;7.03;6.43;;;;;;;17.52;100.00;100926.59;5037010;28;20483;-66
2023/07/21 12:08:56;;;;;;;7.43;6.60;;;;;;;17.54;100.00;100929.91;5041827;28;20021;-65
2023/07/21 12:11:21;;;;;;;8.30;7.50;;;;;;;17.54;100.00;100923.59;5035413;28;20029;-65
2023/07/21 12:13:46;;;;;;;9.00;8.20;;;;;;;17.62;100.00;100925.81;5033584;28;20021;-67
2023/07/21 12:16:12;;;;;;;10.05;9.15;;;;;;;17.60;100.00;100927.16;5032668;28;20022;-68
2023/07/21 12:18:38;;;;;;;11.25;10.15;;;;;;;17.58;100.00;100934.84;5033075;28;20511;-68
2023/07/21 12:21:06;;;;;;;12.23;11.02;;;;;;;17.55;100.00;100941.66;5032648;28;20075;-66
2023/07/21 12:23:32;;;;;;;13.45;12.05;;;;;;;17.45;100.00;100938.88;5032777;28;20052;-67
2023/07/21 12:25:57;;;;;;;14.13;12.75;;;;;;;17.40;100.00;100942.44;5032339;28;20463;-66
2023/07/21 12:28:23;;;;;;;15.43;13.20;;;;;;;17.34;100.00;100957.19;5031377;28;20057;-66
2023/07/21 12:30:48;;;;;;;16.27;14.68;;;;;;;17.29;100.00;100954.44;5032834;28;20448;-66
2023/07/21 12:33:13;;;;;;;15.90;14.30;;;;;;;17.28;100.00;100952.78;5031258;28;20424;-65
2023/07/21 12:35:39;;;;;;;15.35;13.85;;;;;;;17.29;100.00;100954.44;5031468;28;20403;-66
2023/07/21 12:38:05;;;;;;;16.00;14.50;;;;;;;17.31;100.00;100958.53;5032582;28;20369;-66
2023/07/21 12:40:30;;;;;;;14.30;13.00;;;;;;;17.35;100.00;100953.38;5031340;28;20025;-67
2023/07/21 12:42:56;;;;;;;14.50;13.13;;;;;;;17.35;100.00;100959.66;5032177;28;20049;-69
2023/07/21 12:45:21;;;;;;;16.10;14.48;;;;;;;17.28;100.00;100961.00;5032614;28;20025;-67
2023/07/21 12:47:46;;;;;;;17.38;15.57;;;;;;;17.18;100.00;100956.28;5032374;28;20384;-69
2023/07/21 12:50:12;;;;;;;16.60;15.05;;;;;;;17.12;100.00;100960.09;5031147;28;20095;-68
2023/07/21 12:52:37;;;;;;;16.85;15.25;;;;;;;17.22;100.00;100951.94;5032315;28;20017;-68
2023/07/21 12:55:03;;;;;;;17.75;15.45;;;;;;;17.29;100.00;100960.72;5032030;28;20452;-70
2023/07/21 12:57:28;;;;;;;16.00;14.40;;;;;;;17.40;100.00;100960.75;5032230;28;20029;-68
2023/07/21 12:59:54;;;;;;;16.27;14.57;;;;;;;17.52;100.00;100956.69;5029004;28;20024;-68
2023/07/21 13:02:19;;;;;;;14.95;13.63;;;;;;;17.63;100.00;100962.19;5029482;28;20052;-68
2023/07/21 13:04:45;;;;;;;16.83;14.50;;;;;;;17.84;100.00;100954.84;5030834;28;20100;-67
2023/07/21 13:07:11;;;;;;;14.95;12.73;;;;;;;17.96;100.00;100954.63;5031796;28;20839;-68
2023/07/21 13:09:36;;;;;;;14.02;12.63;;;;;;;18.24;100.00;100953.28;5032000;28;20075;-69
2023/07/21 13:12:02;;;;;;;12.00;10.68;;;;;;;18.59;100.00;100951.63;5031634;28;20082;-68
2023/07/21 13:14:28;;;;;;;11.00;9.52;;;;;;;18.77;100.00;100952.94;5032064;28;20108;-68
2023/07/21 13:16:53;;;;;;;8.30;7.32;;;;;;;18.73;100.00;100949.13;5031702;28;20514;-67
2023/07/21 13:19:18;;;;;;;8.02;7.22;;;;;;;18.76;100.00;100951.28;5031937;28;20029;-67
2023/07/21 13:21:44;;;;;;;7.22;6.63;;;;;;;18.70;100.00;100955.16;5031974;28;20356;-68
2023/07/21 13:24:09;;;;;;;7.93;6.38;;;;;;;18.69;100.00;100956.25;5030468;28;20122;-67
2023/07/21 13:26:35;;;;;;;6.40;4.53;;;;;;;18.55;100.00;100954.06;5031778;28;20052;-66
2023/07/21 13:29:01;;;;;;;5.53;4.72;;;;;;;18.39;100.00;100947.78;5031463;28;20026;-67
2023/07/21 13:31:27;;;;;;;5.60;4.53;;;;;;;18.30;100.00;100952.19;5032369;28;20076;-68
2023/07/21 13:33:52;;;;;;;7.38;4.60;;;;;;;18.22;100.00;100956.31;5031879;28;20026;-68
2023/07/21 13:36:17;;;;;;;5.18;4.10;;;;;;;18.14;100.00;100959.56;5035669;28;20029;-70
2023/07/21 13:38:43;;;;;;;4.45;3.78;;;;;;;18.01;100.00;100966.41;5034168;28;20123;-69
2023/07/21 13:41:10;;;;;;;4.20;3.78;;;;;;;17.95;95.56;100955.72;5037463;28;20418;-69
2023/07/21 13:43:36;;;;;;;4.40;3.92;;;;;;;17.83;92.37;100959.50;5035195;28;20029;-69
2023/07/21 13:46:02;;;;;;;9.20;4.32;;;;;;;17.83;100.00;100966.88;5033711;28;20032;-68
2023/07/21 13:48:27;;;;;;;6.68;4.30;;;;;;;17.84;100.00;100961.13;5035011;28;20046;-69
2023/07/21 13:50:52;;;;;;;5.72;3.80;;;;;;;17.87;100.00;100966.09;5033745;28;20028;-69
2023/07/21 13:53:18;;;;;;;5.90;4.10;;;;;;;17.91;91.74;100965.59;5034990;28;20026;-67
2023/07/21 13:55:43;;;;;;;4.82;4.03;;;;;;;17.94;99.55;100956.84;5035208;28;20028;-71
2023/07/21 13:58:09;;;;;;;6.03;4.15;;;;;;;18.00;93.50;100958.47;5035430;28;20057;-71
2023/07/21 14:00:35;;;;;;;5.95;4.53;;;;;;;18.07;95.75;100959.00;5033944;28;20031;-68
2023/07/21 14:03:00;;;;;;;5.47;4.57;;;;;;;18.30;100.00;100962.31;5042508;28;20107;-68
2023/07/21 14:05:26;;;;;;;5.15;4.38;;;;;;;18.36;98.68;100966.72;5033889;28;20057;-69
2023/07/21 14:07:52;;;;;;;6.45;4.55;;;;;;;18.53;100.00;100961.75;5034945;28;20021;-69
2023/07/21 14:10:17;;;;;;;6.72;4.80;;;;;;;18.70;97.46;100968.84;5035811;28;20030;-67
2023/07/21 14:12:44;;;;;;;7.00;4.82;;;;;;;18.78;100.00;100963.63;5034751;28;20076;-67
2023/07/21 14:15:12;;;;;;;7.93;4.93;;;;;;;18.74;98.94;100959.81;5035261;28;20477;-71
2023/07/21 14:17:37;;;;;;;6.05;4.60;;;;;;;18.67;80.10;100952.97;5034984;28;20108;-69
2023/07/21 14:20:08;;;;;;;7.13;4.93;;;;;;;18.58;83.17;100958.19;5034379;28;20420;-72
2023/07/21 14:22:33;;;;;;;7.23;4.87;;;;;;;18.55;89.32;100956.81;5054004;28;20024;-70
2023/07/21 14:24:58;;;;;;;8.43;5.35;;;;;;;18.60;88.16;100969.72;5048022;28;20468;-69
2023/07/21 14:27:24;;;;;;;5.43;4.90;;;;;;;18.76;89.41;100967.75;5036570;28;20445;-67
2023/07/21 14:29:50;;;;;;;6.22;4.75;;;;;;;19.18;79.97;100971.25;5033654;28;20079;-67
2023/07/21 14:32:15;;;;;;;8.68;5.18;;;;;;;19.56;78.22;100963.38;5044177;28;20066;-68
2023/07/21 14:34:41;;;;;;;9.25;5.18;;;;;;;19.66;71.36;100971.56;5034729;28;20032;-68
2023/07/21 14:37:06;;;;;;;5.20;4.57;;;;;;;19.59;68.23;100965.56;5033405;28;20030;-67
2023/07/21 14:39:32;;;;;;;8.25;5.25;;;;;;;19.40;63.14;100968.94;5033940;28;20021;-67
2023/07/21 14:41:57;;;;;;;5.75;4.70;;;;;;;19.42;64.07;100977.72;5034532;28;20029;-68
2023/07/21 14:44:22;;;;;;;6.55;5.15;;;;;;;19.61;60.14;100977.91;5033493;28;20360;-68
2023/07/21 14:46:48;;;;;;;7.88;4.80;;;;;;;19.95;57.22;100976.34;5034737;28;20025;-67
2023/07/21 14:49:13;;;;;;;12.18;5.35;;;;;;;19.95;57.17;100987.34;5039100;28;20055;-67
2023/07/21 14:51:38;;;;;;;7.50;4.85;;;;;;;20.23;57.94;100973.94;5054512;28;20075;-66
2023/07/21 14:54:05;;;;;;;6.20;4.93;;;;;;;20.39;56.02;100969.16;5050920;28;20028;-69
2023/07/21 14:56:31;;;;;;;6.20;5.03;;;;;;;20.41;53.25;100970.50;5044624;28;20104;-69
2023/07/21 14:58:57;;;;;;;8.40;4.53;;;;;;;20.35;51.61;100975.22;5034424;28;20064;-68
2023/07/21 15:01:22;;;;;;;9.75;5.28;;;;;;;20.45;52.23;100976.22;5029078;28;20116;-71
2023/07/21 15:03:48;;;;;;;10.20;5.38;;;;;;;20.47;53.43;100983.09;5057714;28;20033;-67
2023/07/21 15:06:13;;;;;;;8.57;4.38;;;;;;;20.60;52.83;100989.84;5061328;28;20033;-68
2023/07/21 15:08:38;;;;;;;9.27;5.25;;;;;;;20.77;50.71;100983.91;5030378;28;20021;-68
2023/07/21 15:11:04;;;;;;;7.63;4.82;;;;;;;20.82;49.39;100978.38;5040622;28;20504;-70
2023/07/21 15:13:29;;;;;;;5.32;4.70;;;;;;;21.06;48.08;100983.91;5026883;28;20064;-69
2023/07/21 15:15:54;;;;;;;6.57;4.50;;;;;;;21.15;49.75;100983.25;5029284;28;20033;-69
2023/07/21 15:18:20;;;;;;;4.00;3.60;;;;;;;21.22;45.77;100978.22;5034822;28;20111;-70
2023/07/21 15:20:45;;;;;;;9.13;4.15;;;;;;;21.54;44.47;100993.25;5053975;28;20047;-68
2023/07/21 15:23:10;;;;;;;5.68;3.90;;;;;;;21.61;46.41;100990.97;5051407;28;20101;-69
2023/07/21 15:25:36;;;;;;;4.30;3.90;;;;;;;21.48;44.87;101002.66;5052571;28;20025;-69
2023/07/21 15:28:02;;;;;;;4.93;4.10;;;;;;;21.43;43.75;100993.34;5034521;28;20511;-69
2023/07/21 15:30:28;;;;;;;4.60;4.03;;;;;;;21.47;44.54;100995.50;5040451;28;20422;-70
2023/07/21 15:32:54;;;;;;;4.47;4.07;;;;;;;21.50;44.34;101000.47;5035453;28;20079;-68
2023/07/21 15:35:19;;;;;;;5.38;4.40;;;;;;;21.22;45.20;101003.78;5029998;28;20022;-68
2023/07/21 15:37:44;;;;;;;6.70;4.07;;;;;;;21.35;45.22;101013.28;5048722;28;20456;-70
2023/07/21 15:40:11;;;;;;;5.10;4.05;;;;;;;21.99;42.48;101006.69;5031275;28;20049;-69
2023/07/21 15:42:41;;;;;;;6.35;4.00;;;;;;;22.52;42.82;101002.84;5032410;28;20029;-75
2023/07/21 15:45:08;;;;;;;6.82;4.00;;;;;;;22.73;38.93;101008.81;5049282;28;20476;-67
2023/07/21 15:47:33;;;;;;;5.88;3.55;;;;;;;22.13;39.30;101013.06;5052729;28;20087;-67
2023/07/21 15:50:07;;;;;;;3.50;3.20;;;;;;;22.42;40.90;101012.94;5049271;28;20037;-69
2023/07/21 15:52:32;;;;;;;3.63;3.25;;;;;;;22.96;39.00;101007.00;5031867;28;20346;-69
2023/07/21 15:54:58;;;;;;;5.20;3.60;;;;;;;23.07;37.89;101016.75;5037612;28;20058;-69
2023/07/21 15:57:23;;;;;;;4.00;3.60;;;;;;;23.49;38.31;101009.28;5015396;28;20033;-69
2023/07/21 15:59:48;;;;;;;4.85;3.53;;;;;;;23.70;37.51;101015.19;5015935;28;20029;-69
